sensor_id;sensor_type;location;lat;lon;timestamp;pressure;altitude;pressure_sealevel;temperature;humidity
55418;BME280;41287;47.554;7.844;2023-02-12T00:01:09;99922.34;;;16.27;57.94
55418;BME280;41287;47.554;7.844;2023-02-12T00:03:36;99927.75;;;16.27;57.99
55418;BME280;41287;47.554;7.844;2023-02-12T00:06:01;99920.44;;;16.27;57.95
55418;BME280;41287;47.554;7.844;2023-02-12T00:08:27;99916.13;;;16.26;57.94
55418;BME280;41287;47.554;7.844;2023-02-12T00:10:52;99912.34;;;16.27;57.87
55418;BME280;41287;47.554;7.844;2023-02-12T00:13:18;99909.63;;;16.27;57.93
55418;BME280;41287;47.554;7.844;2023-02-12T00:15:45;99901.53;;;16.27;58.07
55418;BME280;41287;47.554;7.844;2023-02-12T00:18:12;99902.06;;;16.29;58.02
55418;BME280;41287;47.554;7.844;2023-02-12T00:20:38;99904.22;;;16.27;58.11
55418;BME280;41287;47.554;7.844;2023-02-12T00:23:03;99907.19;;;16.26;58.08
55418;BME280;41287;47.554;7.844;2023-02-12T00:25:29;99906.13;;;16.27;58.08
55418;BME280;41287;47.554;7.844;2023-02-12T00:27:54;99898.81;;;16.27;57.97
55418;BME280;41287;47.554;7.844;2023-02-12T00:30:20;99899.91;;;16.26;58.05
55418;BME280;41287;47.554;7.844;2023-02-12T00:32:45;99900.44;;;16.28;57.98
55418;BME280;41287;47.554;7.844;2023-02-12T00:35:11;99903.41;;;16.27;58.00
55418;BME280;41287;47.554;7.844;2023-02-12T00:37:36;99901.25;;;16.29;57.80
55418;BME280;41287;47.554;7.844;2023-02-12T00:40:02;99889.88;;;16.27;58.00
55418;BME280;41287;47.554;7.844;2023-02-12T00:42:29;99898.00;;;16.27;58.05
55418;BME280;41287;47.554;7.844;2023-02-12T00:44:55;99883.41;;;16.28;58.00
55418;BME280;41287;47.554;7.844;2023-02-12T00:47:22;99891.50;;;16.28;58.02
55418;BME280;41287;47.554;7.844;2023-02-12T00:49:47;99892.31;;;16.28;58.11
55418;BME280;41287;47.554;7.844;2023-02-12T00:52:12;99890.69;;;16.27;57.97
55418;BME280;41287;47.554;7.844;2023-02-12T00:54:38;99896.09;;;16.27;58.20
55418;BME280;41287;47.554;7.844;2023-02-12T00:57:03;99905.03;;;16.28;58.15
55418;BME280;41287;47.554;7.844;2023-02-12T00:59:31;99901.25;;;16.29;58.13
55418;BME280;41287;47.554;7.844;2023-02-12T01:02:02;99904.22;;;16.27;58.21
55418;BME280;41287;47.554;7.844;2023-02-12T01:04:27;99896.09;;;16.27;58.09
55418;BME280;41287;47.554;7.844;2023-02-12T01:06:53;99903.41;;;16.27;58.09
55418;BME280;41287;47.554;7.844;2023-02-12T01:09:18;99900.72;;;16.27;58.08
55418;BME280;41287;47.554;7.844;2023-02-12T01:11:43;99903.41;;;16.27;58.03
55418;BME280;41287;47.554;7.844;2023-02-12T01:14:08;99902.59;;;16.26;58.08
55418;BME280;41287;47.554;7.844;2023-02-12T01:16:34;99906.94;;;16.27;58.26
55418;BME280;41287;47.554;7.844;2023-02-12T01:19:04;99898.81;;;16.27;58.12
55418;BME280;41287;47.554;7.844;2023-02-12T01:21:32;99901.53;;;16.27;58.07
55418;BME280;41287;47.554;7.844;2023-02-12T01:23:59;99904.22;;;16.27;58.15
55418;BME280;41287;47.554;7.844;2023-02-12T01:26:25;99901.53;;;16.27;58.04
55418;BME280;41287;47.554;7.844;2023-02-12T01:28:53;99909.63;;;16.27;58.09
55418;BME280;41287;47.554;7.844;2023-02-12T01:31:25;99913.41;;;16.26;58.11
55418;BME280;41287;47.554;7.844;2023-02-12T01:33:53;99912.34;;;16.27;58.09
55418;BME280;41287;47.554;7.844;2023-02-12T01:36:19;99909.63;;;16.27;58.20
55418;BME280;41287;47.554;7.844;2023-02-12T01:38:44;99907.75;;;16.28;58.27
55418;BME280;41287;47.554;7.844;2023-02-12T01:41:22;99899.91;;;16.26;58.20
55418;BME280;41287;47.554;7.844;2023-02-12T01:46:30;99893.41;;;16.27;58.13
55418;BME280;41287;47.554;7.844;2023-02-12T01:48:55;99900.44;;;16.28;58.19
55418;BME280;41287;47.554;7.844;2023-02-12T01:51:21;99896.09;;;16.27;58.09
55418;BME280;41287;47.554;7.844;2023-02-12T01:53:51;99902.34;;;16.28;58.15
55418;BME280;41287;47.554;7.844;2023-02-12T01:56:18;99889.63;;;16.28;58.17
55418;BME280;41287;47.554;7.844;2023-02-12T01:58:46;99888.81;;;16.28;58.21
55418;BME280;41287;47.554;7.844;2023-02-12T02:01:16;99884.47;;;16.27;58.21
55418;BME280;41287;47.554;7.844;2023-02-12T02:03:44;99881.50;;;16.28;58.20
55418;BME280;41287;47.554;7.844;2023-02-12T02:06:15;99879.88;;;16.27;58.22
55418;BME280;41287;47.554;7.844;2023-02-12T02:08:42;99878.00;;;16.28;58.14
55418;BME280;41287;47.554;7.844;2023-02-12T02:11:08;99878.81;;;16.28;58.11
55418;BME280;41287;47.554;7.844;2023-02-12T02:13:55;99873.66;;;16.27;58.15
55418;BME280;41287;47.554;7.844;2023-02-12T02:16:42;99871.50;;;16.29;58.18
55418;BME280;41287;47.554;7.844;2023-02-12T02:27:20;99872.84;;;16.26;58.33
55418;BME280;41287;47.554;7.844;2023-02-12T02:30:16;99873.94;;;16.25;58.28
55418;BME280;41287;47.554;7.844;2023-02-12T02:35:32;99866.63;;;16.26;58.28
55418;BME280;41287;47.554;7.844;2023-02-12T02:38:29;99861.22;;;16.26;58.23
55418;BME280;41287;47.554;7.844;2023-02-12T02:43:31;99859.31;;;16.26;58.24
55418;BME280;41287;47.554;7.844;2023-02-12T02:46:37;99860.41;;;16.25;58.18
55418;BME280;41287;47.554;7.844;2023-02-12T02:49:06;99855.81;;;16.26;58.29
55418;BME280;41287;47.554;7.844;2023-02-12T02:51:39;99854.72;;;16.27;58.31
55418;BME280;41287;47.554;7.844;2023-02-12T02:54:15;99852.28;;;16.25;58.22
55418;BME280;41287;47.554;7.844;2023-02-12T02:56:44;99851.22;;;16.26;58.32
55418;BME280;41287;47.554;7.844;2023-02-12T02:59:12;99846.59;;;16.27;58.24
55418;BME280;41287;47.554;7.844;2023-02-12T03:01:47;99852.28;;;16.25;58.29
55418;BME280;41287;47.554;7.844;2023-02-12T03:04:22;99853.91;;;16.26;58.21
55418;BME280;41287;47.554;7.844;2023-02-12T03:07:05;99853.09;;;16.26;58.29
55418;BME280;41287;47.554;7.844;2023-02-12T03:10:01;99860.13;;;16.27;58.32
55418;BME280;41287;47.554;7.844;2023-02-12T03:12:35;99860.13;;;16.27;58.25
55418;BME280;41287;47.554;7.844;2023-02-12T03:15:25;99854.19;;;16.25;58.38
55418;BME280;41287;47.554;7.844;2023-02-12T03:17:55;99855.53;;;16.27;58.33
55418;BME280;41287;47.554;7.844;2023-02-12T03:20:26;99858.50;;;16.26;58.35
55418;BME280;41287;47.554;7.844;2023-02-12T03:23:14;99850.66;;;16.24;58.29
55418;BME280;41287;47.554;7.844;2023-02-12T03:26:10;99851.47;;;16.25;58.41
55418;BME280;41287;47.554;7.844;2023-02-12T03:28:37;99847.69;;;16.26;58.28
55418;BME280;41287;47.554;7.844;2023-02-12T03:36:50;99859.88;;;16.23;58.37
55418;BME280;41287;47.554;7.844;2023-02-12T03:39:56;99857.19;;;16.23;58.39
55418;BME280;41287;47.554;7.844;2023-02-12T03:47:49;99857.19;;;16.23;58.30
55418;BME280;41287;47.554;7.844;2023-02-12T03:50:38;99859.59;;;16.25;58.42
55418;BME280;41287;47.554;7.844;2023-02-12T03:53:06;99851.47;;;16.25;58.40
55418;BME280;41287;47.554;7.844;2023-02-12T03:55:35;99858.00;;;16.24;58.32
55418;BME280;41287;47.554;7.844;2023-02-12T03:58:02;99858.50;;;16.26;58.43
55418;BME280;41287;47.554;7.844;2023-02-12T04:00:31;99855.00;;;16.25;58.40
55418;BME280;41287;47.554;7.844;2023-02-12T04:02:56;99854.19;;;16.25;58.34
55418;BME280;41287;47.554;7.844;2023-02-12T04:05:26;99856.06;;;16.24;58.38
55418;BME280;41287;47.554;7.844;2023-02-12T04:07:54;99856.88;;;16.25;58.31
55418;BME280;41287;47.554;7.844;2023-02-12T04:10:26;99847.97;;;16.24;58.34
55418;BME280;41287;47.554;7.844;2023-02-12T04:12:59;99855.81;;;16.26;58.43
55418;BME280;41287;47.554;7.844;2023-02-12T04:15:42;99856.88;;;16.25;58.56
55418;BME280;41287;47.554;7.844;2023-02-12T04:18:23;99865.81;;;16.25;58.20
55418;BME280;41287;47.554;7.844;2023-02-12T04:27:06;99866.88;;;16.24;58.45
55418;BME280;41287;47.554;7.844;2023-02-12T04:29:52;99873.13;;;16.25;58.31
55418;BME280;41287;47.554;7.844;2023-02-12T04:32:25;99860.69;;;16.24;58.37
55418;BME280;41287;47.554;7.844;2023-02-12T04:35:07;99866.09;;;16.24;58.30
55418;BME280;41287;47.554;7.844;2023-02-12T04:37:47;99873.41;;;16.23;58.46
55418;BME280;41287;47.554;7.844;2023-02-12T04:40:17;99870.41;;;16.25;58.32
55418;BME280;41287;47.554;7.844;2023-02-12T04:42:44;99873.13;;;16.25;58.29
55418;BME280;41287;47.554;7.844;2023-02-12T04:45:12;99875.00;;;16.24;58.38
55418;BME280;41287;47.554;7.844;2023-02-12T04:47:38;99876.13;;;16.23;58.20
55418;BME280;41287;47.554;7.844;2023-02-12T04:50:04;99873.94;;;16.25;58.42
55418;BME280;41287;47.554;7.844;2023-02-12T04:52:29;99879.63;;;16.24;58.48
55418;BME280;41287;47.554;7.844;2023-02-12T04:54:54;99880.41;;;16.24;58.34
55418;BME280;41287;47.554;7.844;2023-02-12T04:57:20;99871.53;;;16.24;58.54
55418;BME280;41287;47.554;7.844;2023-02-12T04:59:45;99879.34;;;16.25;58.50
55418;BME280;41287;47.554;7.844;2023-02-12T05:02:10;99878.53;;;16.25;58.49
55418;BME280;41287;47.554;7.844;2023-02-12T05:04:37;99872.31;;;16.24;58.46
55418;BME280;41287;47.554;7.844;2023-02-12T05:07:03;99871.53;;;16.24;58.29
55418;BME280;41287;47.554;7.844;2023-02-12T05:09:28;99872.31;;;16.24;58.40
55418;BME280;41287;47.554;7.844;2023-02-12T05:11:54;99867.69;;;16.25;58.74
55418;BME280;41287;47.554;7.844;2023-02-12T05:14:19;99873.13;;;16.25;58.50
55418;BME280;41287;47.554;7.844;2023-02-12T05:16:45;99868.50;;;16.25;58.46
55418;BME280;41287;47.554;7.844;2023-02-12T05:19:10;99869.59;;;16.24;58.23
55418;BME280;41287;47.554;7.844;2023-02-12T05:21:36;99876.63;;;16.25;58.42
55418;BME280;41287;47.554;7.844;2023-02-12T05:24:02;99870.41;;;16.25;58.34
55418;BME280;41287;47.554;7.844;2023-02-12T05:26:28;99865.00;;;16.25;58.41
55418;BME280;41287;47.554;7.844;2023-02-12T05:28:53;99861.47;;;16.24;58.32
55418;BME280;41287;47.554;7.844;2023-02-12T05:31:19;99858.00;;;16.24;58.35
55418;BME280;41287;47.554;7.844;2023-02-12T05:33:46;99865.00;;;16.25;58.26
55418;BME280;41287;47.554;7.844;2023-02-12T05:36:13;99862.28;;;16.25;58.31
55418;BME280;41287;47.554;7.844;2023-02-12T05:38:40;99861.47;;;16.24;58.39
55418;BME280;41287;47.554;7.844;2023-02-12T05:41:09;99862.28;;;16.25;58.54
55418;BME280;41287;47.554;7.844;2023-02-12T05:43:35;99859.59;;;16.25;58.54
55418;BME280;41287;47.554;7.844;2023-02-12T05:46:01;99860.69;;;16.24;58.44
55418;BME280;41287;47.554;7.844;2023-02-12T05:48:28;99858.78;;;16.24;58.46
55418;BME280;41287;47.554;7.844;2023-02-12T05:50:53;99854.19;;;16.25;58.42
55418;BME280;41287;47.554;7.844;2023-02-12T05:53:19;99858.78;;;16.24;58.37
55418;BME280;41287;47.554;7.844;2023-02-12T05:55:44;99862.28;;;16.25;58.48
55418;BME280;41287;47.554;7.844;2023-02-12T05:58:10;99864.19;;;16.24;58.45
55418;BME280;41287;47.554;7.844;2023-02-12T06:00:35;99854.19;;;16.25;58.48
55418;BME280;41287;47.554;7.844;2023-02-12T06:03:01;99852.59;;;16.24;58.37
55418;BME280;41287;47.554;7.844;2023-02-12T06:05:26;99853.38;;;16.24;58.46
55418;BME280;41287;47.554;7.844;2023-02-12T06:07:51;99856.06;;;16.24;58.84
55418;BME280;41287;47.554;7.844;2023-02-12T06:10:17;99861.47;;;16.24;58.53
55418;BME280;41287;47.554;7.844;2023-02-12T06:12:42;99850.66;;;16.24;58.41
55418;BME280;41287;47.554;7.844;2023-02-12T06:15:08;99856.06;;;16.24;58.36
55418;BME280;41287;47.554;7.844;2023-02-12T06:17:33;99861.47;;;16.24;58.48
55418;BME280;41287;47.554;7.844;2023-02-12T06:19:59;99856.06;;;16.24;58.40
55418;BME280;41287;47.554;7.844;2023-02-12T06:22:24;99860.41;;;16.25;58.29
55418;BME280;41287;47.554;7.844;2023-02-12T06:24:49;99862.28;;;16.25;58.49
55418;BME280;41287;47.554;7.844;2023-02-12T06:27:17;99853.38;;;16.24;58.56
55418;BME280;41287;47.554;7.844;2023-02-12T06:29:42;99847.19;;;16.24;58.50
55418;BME280;41287;47.554;7.844;2023-02-12T06:32:08;99847.97;;;16.24;58.59
55418;BME280;41287;47.554;7.844;2023-02-12T06:34:33;99851.78;;;16.23;58.73
55418;BME280;41287;47.554;7.844;2023-02-12T06:36:59;99854.19;;;16.25;58.57
55418;BME280;41287;47.554;7.844;2023-02-12T06:39:24;99853.38;;;16.24;58.50
55418;BME280;41287;47.554;7.844;2023-02-12T06:41:49;99851.47;;;16.25;58.61
55418;BME280;41287;47.554;7.844;2023-02-12T06:44:16;99845.25;;;16.24;58.64
55418;BME280;41287;47.554;7.844;2023-02-12T06:46:43;99849.88;;;16.24;58.52
55418;BME280;41287;47.554;7.844;2023-02-12T06:49:10;99860.69;;;16.24;58.49
55418;BME280;41287;47.554;7.844;2023-02-12T06:51:36;99862.28;;;16.25;58.45
55418;BME280;41287;47.554;7.844;2023-02-12T06:54:02;99851.78;;;16.23;58.43
55418;BME280;41287;47.554;7.844;2023-02-12T06:56:27;99852.59;;;16.24;58.65
55418;BME280;41287;47.554;7.844;2023-02-12T06:58:55;99863.41;;;16.24;58.49
55418;BME280;41287;47.554;7.844;2023-02-12T07:01:24;99861.47;;;16.24;58.92
55418;BME280;41287;47.554;7.844;2023-02-12T07:03:54;99859.88;;;16.23;58.45
55418;BME280;41287;47.554;7.844;2023-02-12T07:06:21;99867.69;;;16.25;58.49
55418;BME280;41287;47.554;7.844;2023-02-12T07:08:47;99872.31;;;16.24;58.84
55418;BME280;41287;47.554;7.844;2023-02-12T07:11:14;99860.69;;;16.24;58.53
55418;BME280;41287;47.554;7.844;2023-02-12T07:13:40;99873.13;;;16.25;58.48
55418;BME280;41287;47.554;7.844;2023-02-12T07:16:09;99864.19;;;16.24;58.56
55418;BME280;41287;47.554;7.844;2023-02-12T07:18:35;99866.88;;;16.24;58.69
55418;BME280;41287;47.554;7.844;2023-02-12T07:21:02;99862.59;;;16.23;58.86
55418;BME280;41287;47.554;7.844;2023-02-12T07:23:28;99868.81;;;16.24;58.65
55418;BME280;41287;47.554;7.844;2023-02-12T07:25:58;99863.09;;;16.25;59.06
55418;BME280;41287;47.554;7.844;2023-02-12T07:28:23;99869.59;;;16.29;59.24
55418;BME280;41287;47.554;7.844;2023-02-12T07:30:49;99874.19;;;16.34;59.33
55418;BME280;41287;47.554;7.844;2023-02-12T07:33:15;99874.72;;;16.36;59.96
55418;BME280;41287;47.554;7.844;2023-02-12T07:35:40;99877.69;;;16.39;60.89
55418;BME280;41287;47.554;7.844;2023-02-12T07:38:06;99872.81;;;16.41;62.23
55418;BME280;41287;47.554;7.844;2023-02-12T07:40:31;99870.34;;;16.45;62.99
55418;BME280;41287;47.554;7.844;2023-02-12T07:42:56;99878.75;;;16.48;64.03
55418;BME280;41287;47.554;7.844;2023-02-12T07:45:22;99880.09;;;16.51;65.49
55418;BME280;41287;47.554;7.844;2023-02-12T07:47:48;99875.75;;;16.55;66.59
55418;BME280;41287;47.554;7.844;2023-02-12T07:50:14;99873.56;;;16.57;67.25
55418;BME280;41287;47.554;7.844;2023-02-12T07:52:39;99881.16;;;16.60;68.13
55418;BME280;41287;47.554;7.844;2023-02-12T07:55:05;99879.53;;;16.64;69.32
55418;BME280;41287;47.554;7.844;2023-02-12T07:57:31;99886.81;;;16.69;69.46
55418;BME280;41287;47.554;7.844;2023-02-12T07:59:59;99879.50;;;16.69;70.06
55418;BME280;41287;47.554;7.844;2023-02-12T08:02:24;99876.53;;;16.71;70.91
55418;BME280;41287;47.554;7.844;2023-02-12T08:04:54;99883.00;;;16.75;71.82
55418;BME280;41287;47.554;7.844;2023-02-12T08:07:20;99875.16;;;16.78;72.09
55418;BME280;41287;47.554;7.844;2023-02-12T08:09:46;99884.06;;;16.79;71.34
55418;BME280;41287;47.554;7.844;2023-02-12T08:12:11;99873.53;;;16.77;68.75
55418;BME280;41287;47.554;7.844;2023-02-12T08:14:36;99876.78;;;16.74;65.72
55418;BME280;41287;47.554;7.844;2023-02-12T08:17:02;99877.03;;;16.73;63.63
55418;BME280;41287;47.554;7.844;2023-02-12T08:19:27;99875.16;;;16.73;62.18
55418;BME280;41287;47.554;7.844;2023-02-12T08:21:54;99885.69;;;16.75;60.94
55418;BME280;41287;47.554;7.844;2023-02-12T08:24:19;99877.59;;;16.75;59.96
55418;BME280;41287;47.554;7.844;2023-02-12T08:26:46;99880.28;;;16.75;59.26
55418;BME280;41287;47.554;7.844;2023-02-12T08:29:13;99877.03;;;16.78;58.51
55418;BME280;41287;47.554;7.844;2023-02-12T08:31:42;99875.41;;;16.77;58.00
55418;BME280;41287;47.554;7.844;2023-02-12T08:34:21;99879.75;;;16.78;56.86
55418;BME280;41287;47.554;7.844;2023-02-12T08:36:48;99877.84;;;16.78;56.78
55418;BME280;41287;47.554;7.844;2023-02-12T08:39:15;99875.94;;;16.79;56.21
55418;BME280;41287;47.554;7.844;2023-02-12T08:41:40;99876.75;;;16.79;56.06
55418;BME280;41287;47.554;7.844;2023-02-12T08:44:09;99869.72;;;16.78;56.00
55418;BME280;41287;47.554;7.844;2023-02-12T08:46:39;99878.63;;;16.79;55.72
55418;BME280;41287;47.554;7.844;2023-02-12T08:49:11;99874.84;;;16.80;55.24
55418;BME280;41287;47.554;7.844;2023-02-12T08:51:39;99864.81;;;16.80;55.22
55418;BME280;41287;47.554;7.844;2023-02-12T08:54:06;99865.91;;;16.79;54.99
55418;BME280;41287;47.554;7.844;2023-02-12T08:56:33;99867.53;;;16.80;54.71
55418;BME280;41287;47.554;7.844;2023-02-12T08:59:00;99877.28;;;16.81;54.39
55418;BME280;41287;47.554;7.844;2023-02-12T09:01:28;99864.56;;;16.82;54.33
55418;BME280;41287;47.554;7.844;2023-02-12T09:03:54;99864.56;;;16.82;54.31
55418;BME280;41287;47.554;7.844;2023-02-12T09:06:21;99869.16;;;16.81;54.04
55418;BME280;41287;47.554;7.844;2023-02-12T09:08:47;99870.78;;;16.82;54.01
55418;BME280;41287;47.554;7.844;2023-02-12T09:11:15;99869.69;;;16.83;53.80
55418;BME280;41287;47.554;7.844;2023-02-12T09:13:42;99859.97;;;16.82;53.54
55418;BME280;41287;47.554;7.844;2023-02-12T09:16:08;99860.50;;;16.84;53.48
55418;BME280;41287;47.554;7.844;2023-02-12T09:18:34;99856.97;;;16.84;53.54
55418;BME280;41287;47.554;7.844;2023-02-12T09:21:05;99865.09;;;16.84;53.25
55418;BME280;41287;47.554;7.844;2023-02-12T09:23:31;99856.16;;;16.83;53.07
55418;BME280;41287;47.554;7.844;2023-02-12T09:25:57;99857.50;;;16.86;52.93
55418;BME280;41287;47.554;7.844;2023-02-12T09:28:23;99850.47;;;16.85;52.98
55418;BME280;41287;47.554;7.844;2023-02-12T09:30:48;99854.78;;;16.86;52.76
55418;BME280;41287;47.554;7.844;2023-02-12T09:33:14;99861.00;;;16.86;52.55
55418;BME280;41287;47.554;7.844;2023-02-12T09:35:40;99858.59;;;16.85;52.53
55418;BME280;41287;47.554;7.844;2023-02-12T09:38:06;99859.91;;;16.87;52.53
55418;BME280;41287;47.554;7.844;2023-02-12T09:45:43;99870.75;;;16.87;52.03
55418;BME280;41287;47.554;7.844;2023-02-12T09:50:51;99869.13;;;16.86;52.00
55418;BME280;41287;47.554;7.844;2023-02-12T09:53:24;99866.16;;;16.88;51.90
55418;BME280;41287;47.554;7.844;2023-02-12T09:55:54;99868.84;;;16.88;51.80
55418;BME280;41287;47.554;7.844;2023-02-12T09:58:35;99869.94;;;16.87;51.96
55418;BME280;41287;47.554;7.844;2023-02-12T10:01:15;99859.91;;;16.87;51.76
55418;BME280;41287;47.554;7.844;2023-02-12T10:03:42;99868.59;;;16.89;51.66
55418;BME280;41287;47.554;7.844;2023-02-12T10:06:21;99855.31;;;16.88;51.60
55418;BME280;41287;47.554;7.844;2023-02-12T10:14:20;99859.38;;;16.90;51.58
55418;BME280;41287;47.554;7.844;2023-02-12T10:25:14;99844.22;;;16.89;51.17
55418;BME280;41287;47.554;7.844;2023-02-12T10:27:53;99839.63;;;16.90;51.19
55418;BME280;41287;47.554;7.844;2023-02-12T10:30:26;99835.28;;;16.89;51.08
55418;BME280;41287;47.554;7.844;2023-02-12T10:33:02;99831.75;;;16.88;51.02
55418;BME280;41287;47.554;7.844;2023-02-12T10:35:29;99828.78;;;16.90;51.03
55418;BME280;41287;47.554;7.844;2023-02-12T10:38:00;99826.06;;;16.90;50.92
55418;BME280;41287;47.554;7.844;2023-02-12T10:40:30;99825.25;;;16.89;50.88
55418;BME280;41287;47.554;7.844;2023-02-12T10:42:59;99825.00;;;16.91;50.83
55418;BME280;41287;47.554;7.844;2023-02-12T10:45:31;99821.47;;;16.90;50.70
55418;BME280;41287;47.554;7.844;2023-02-12T10:51:10;99809.03;;;16.89;50.62
55418;BME280;41287;47.554;7.844;2023-02-12T10:53:43;99808.75;;;16.91;50.73
55418;BME280;41287;47.554;7.844;2023-02-12T10:56:16;99805.22;;;16.90;50.45
55418;BME280;41287;47.554;7.844;2023-02-12T10:58:56;99797.91;;;16.91;50.71
55418;BME280;41287;47.554;7.844;2023-02-12T11:01:36;99790.59;;;16.91;50.52
55418;BME280;41287;47.554;7.844;2023-02-12T11:04:26;99789.78;;;16.91;50.50
55418;BME280;41287;47.554;7.844;2023-02-12T11:07:06;99787.09;;;16.91;50.51
55418;BME280;41287;47.554;7.844;2023-02-12T11:09:41;99778.97;;;16.91;50.36
55418;BME280;41287;47.554;7.844;2023-02-12T11:12:34;99776.75;;;16.93;50.23
55418;BME280;41287;47.554;7.844;2023-02-12T11:15:05;99774.88;;;16.93;50.30
55418;BME280;41287;47.554;7.844;2023-02-12T11:17:38;99770.53;;;16.92;50.44
55418;BME280;41287;47.554;7.844;2023-02-12T11:20:19;99766.75;;;16.93;50.23
55418;BME280;41287;47.554;7.844;2023-02-12T11:23:06;99759.72;;;16.92;50.15
55418;BME280;41287;47.554;7.844;2023-02-12T11:28:22;99755.91;;;16.93;50.08
55418;BME280;41287;47.554;7.844;2023-02-12T11:30:55;99749.69;;;16.93;50.01
55418;BME280;41287;47.554;7.844;2023-02-12T11:33:31;99753.19;;;16.93;49.96
55418;BME280;41287;47.554;7.844;2023-02-12T11:36:00;99749.41;;;16.94;50.03
55418;BME280;41287;47.554;7.844;2023-02-12T11:38:29;99750.50;;;16.93;50.11
55418;BME280;41287;47.554;7.844;2023-02-12T11:40:58;99746.69;;;16.94;50.02
55418;BME280;41287;47.554;7.844;2023-02-12T11:43:26;99744.81;;;16.95;49.99
55418;BME280;41287;47.554;7.844;2023-02-12T11:45:54;99743.72;;;16.96;49.84
55418;BME280;41287;47.554;7.844;2023-02-12T11:48:22;99742.09;;;16.95;49.99
55418;BME280;41287;47.554;7.844;2023-02-12T11:50:51;99742.09;;;16.95;49.84
55418;BME280;41287;47.554;7.844;2023-02-12T11:53:39;99736.69;;;16.95;49.97
55418;BME280;41287;47.554;7.844;2023-02-12T11:56:09;99737.50;;;16.95;49.87
55418;BME280;41287;47.554;7.844;2023-02-12T11:58:35;99737.22;;;16.97;49.71
55418;BME280;41287;47.554;7.844;2023-02-12T12:03:50;99726.66;;;16.95;49.62
55418;BME280;41287;47.554;7.844;2023-02-12T12:06:22;99721.78;;;16.97;49.69
55418;BME280;41287;47.554;7.844;2023-02-12T12:08:54;99721.47;;;16.99;49.50
55418;BME280;41287;47.554;7.844;2023-02-12T12:11:28;99712.84;;;16.97;49.52
55418;BME280;41287;47.554;7.844;2023-02-12T12:14:13;99705.81;;;16.96;49.18
55418;BME280;41287;47.554;7.844;2023-02-12T12:16:48;99699.59;;;16.95;49.39
55418;BME280;41287;47.554;7.844;2023-02-12T12:19:58;99696.31;;;16.98;49.37
55418;BME280;41287;47.554;7.844;2023-02-12T12:28:13;99684.16;;;16.96;49.37
55418;BME280;41287;47.554;7.844;2023-02-12T12:31:00;99676.84;;;16.96;49.16
55418;BME280;41287;47.554;7.844;2023-02-12T12:34:08;99676.03;;;16.96;49.37
55418;BME280;41287;47.554;7.844;2023-02-12T12:42:34;99667.63;;;16.97;49.26
55418;BME280;41287;47.554;7.844;2023-02-12T12:45:34;99662.22;;;16.97;49.32
55418;BME280;41287;47.554;7.844;2023-02-12T13:01:47;99645.97;;;16.97;49.20
55418;BME280;41287;47.554;7.844;2023-02-12T13:04:38;99647.88;;;16.97;48.99
55418;BME280;41287;47.554;7.844;2023-02-12T13:10:31;99639.47;;;16.98;48.98
55418;BME280;41287;47.554;7.844;2023-02-12T13:13:18;99643.75;;;16.99;48.89
55418;BME280;41287;47.554;7.844;2023-02-12T13:24:37;99631.34;;;16.98;48.96
55418;BME280;41287;47.554;7.844;2023-02-12T13:27:13;99631.03;;;17.00;48.86
55418;BME280;41287;47.554;7.844;2023-02-12T13:29:44;99633.75;;;17.00;48.89
55418;BME280;41287;47.554;7.844;2023-02-12T13:32:16;99636.44;;;17.00;48.74
55418;BME280;41287;47.554;7.844;2023-02-12T13:34:44;99636.16;;;17.02;48.95
55418;BME280;41287;47.554;7.844;2023-02-12T13:39:58;99629.66;;;17.03;48.71
55418;BME280;41287;47.554;7.844;2023-02-12T13:42:42;99636.16;;;17.02;48.69
55418;BME280;41287;47.554;7.844;2023-02-12T13:47:50;99638.88;;;17.02;48.68
55418;BME280;41287;47.554;7.844;2023-02-12T13:50:46;99625.34;;;17.02;48.66
55418;BME280;41287;47.554;7.844;2023-02-12T13:56:26;99629.66;;;17.03;48.68
55418;BME280;41287;47.554;7.844;2023-02-12T13:58:53;99636.69;;;17.04;48.60
55418;BME280;41287;47.554;7.844;2023-02-12T14:01:38;99633.19;;;17.03;48.53
55418;BME280;41287;47.554;7.844;2023-02-12T14:04:37;99630.47;;;17.03;48.31
55418;BME280;41287;47.554;7.844;2023-02-12T14:07:09;99630.19;;;17.05;48.61
55418;BME280;41287;47.554;7.844;2023-02-12T14:09:38;99632.59;;;17.06;48.48
55418;BME280;41287;47.554;7.844;2023-02-12T14:12:12;99627.50;;;17.05;48.56
55418;BME280;41287;47.554;7.844;2023-02-12T14:14:42;99631.81;;;17.06;48.44
55418;BME280;41287;47.554;7.844;2023-02-12T14:20:49;99629.38;;;17.04;48.47
55418;BME280;41287;47.554;7.844;2023-02-12T14:23:27;99631.00;;;17.05;48.44
55418;BME280;41287;47.554;7.844;2023-02-12T14:26:11;99630.19;;;17.05;48.31
55418;BME280;41287;47.554;7.844;2023-02-12T14:28:51;99628.28;;;17.05;48.29
55418;BME280;41287;47.554;7.844;2023-02-12T14:33:47;99628.28;;;17.05;48.31
55418;BME280;41287;47.554;7.844;2023-02-12T14:36:17;99622.88;;;17.05;48.23
55418;BME280;41287;47.554;7.844;2023-02-12T14:41:29;99622.06;;;17.05;48.11
55418;BME280;41287;47.554;7.844;2023-02-12T14:47:01;99632.59;;;17.06;48.05
55418;BME280;41287;47.554;7.844;2023-02-12T14:49:34;99632.59;;;17.06;48.14
55418;BME280;41287;47.554;7.844;2023-02-12T15:00:00;99624.19;;;17.08;47.81
55418;BME280;41287;47.554;7.844;2023-02-12T15:02:28;99627.72;;;17.08;47.92
55418;BME280;41287;47.554;7.844;2023-02-12T15:05:00;99633.94;;;17.09;47.91
55418;BME280;41287;47.554;7.844;2023-02-12T15:07:42;99630.41;;;17.08;47.81
55418;BME280;41287;47.554;7.844;2023-02-12T15:10:17;99637.72;;;17.08;47.84
55418;BME280;41287;47.554;7.844;2023-02-12T15:15:31;99639.34;;;17.09;48.04
55418;BME280;41287;47.554;7.844;2023-02-12T15:18:21;99644.22;;;17.07;48.32
55418;BME280;41287;47.554;7.844;2023-02-12T15:20:58;99642.66;;;17.06;48.67
55418;BME280;41287;47.554;7.844;2023-02-12T15:23:44;99648.63;;;17.03;48.90
55418;BME280;41287;47.554;7.844;2023-02-12T15:26:18;99648.63;;;17.03;49.47
55418;BME280;41287;47.554;7.844;2023-02-12T15:28:50;99646.19;;;17.01;49.73
55418;BME280;41287;47.554;7.844;2023-02-12T15:31:19;99645.38;;;17.01;49.76